createdAt,value
2023-04-09T00:02:00.514Z,10.33
2023-04-09T00:04:28.952Z,11.30
2023-04-09T00:06:57.547Z,10.77
2023-04-09T00:09:25.859Z,10.80
2023-04-09T00:11:54.492Z,11.17
2023-04-09T00:14:24.418Z,11.37
2023-04-09T00:16:52.799Z,10.27
2023-04-09T00:19:21.589Z,10.27
2023-04-09T00:21:49.659Z,10.53
2023-04-09T00:24:18.108Z,10.30
2023-04-09T00:26:46.898Z,9.83
2023-04-09T00:29:15.509Z,10.30
2023-04-09T00:31:45.460Z,11.17
2023-04-09T00:34:14.088Z,9.77
2023-04-09T00:36:42.808Z,10.50
2023-04-09T00:39:11.694Z,9.93
2023-04-09T00:41:40.393Z,11.70
2023-04-09T00:44:09.033Z,10.03
2023-04-09T00:46:37.750Z,10.73
2023-04-09T00:49:07.786Z,10.60
2023-04-09T00:51:38.881Z,10.37
2023-04-09T00:54:07.345Z,11.13
2023-04-09T00:56:36.420Z,10.80
2023-04-09T00:59:05.102Z,11.70
2023-04-09T01:01:33.611Z,11.53
2023-04-09T01:04:02.331Z,12.57
2023-04-09T01:06:39.078Z,10.90
2023-04-09T01:09:08.891Z,11.57
2023-04-09T01:11:41.417Z,11.43
2023-04-09T01:14:13.736Z,11.63
2023-04-09T01:16:44.547Z,11.93
2023-04-09T01:19:29.077Z,10.83
2023-04-09T01:22:00.491Z,11.80
2023-04-09T01:24:38.138Z,12.00
2023-04-09T01:27:09.861Z,11.83
2023-04-09T01:29:43.628Z,11.30
2023-04-09T01:32:13.047Z,12.90
2023-04-09T01:34:44.720Z,10.50
2023-04-09T01:37:14.225Z,11.23
2023-04-09T01:39:42.865Z,12.47
2023-04-09T01:42:12.476Z,12.03
2023-04-09T01:44:43.076Z,12.53
2023-04-09T01:47:11.855Z,11.43
2023-04-09T01:49:41.843Z,11.00
2023-04-09T01:52:10.775Z,12.03
2023-04-09T01:54:39.188Z,11.37
2023-04-09T01:57:07.539Z,11.60
2023-04-09T01:59:36.113Z,10.87
2023-04-09T02:02:08.594Z,11.20
2023-04-09T02:04:39.832Z,10.00
2023-04-09T02:07:12.833Z,10.30
2023-04-09T02:09:42.163Z,11.53
2023-04-09T02:12:13.057Z,10.87
2023-04-09T02:14:42.552Z,11.10
2023-04-09T02:17:13.277Z,9.20
2023-04-09T02:19:42.653Z,12.40
2023-04-09T02:22:11.273Z,11.27
2023-04-09T02:24:40.651Z,12.47
2023-04-09T02:27:09.547Z,12.30
2023-04-09T02:29:38.159Z,11.63
2023-04-09T02:32:07.424Z,11.53
2023-04-09T02:34:37.278Z,12.93
2023-04-09T02:37:07.145Z,11.20
2023-04-09T02:39:35.993Z,12.23
2023-04-09T02:42:04.808Z,11.63
2023-04-09T02:44:33.138Z,11.60
2023-04-09T02:47:03.982Z,11.57
2023-04-09T02:49:32.578Z,11.60
2023-04-09T02:52:02.729Z,11.63
2023-04-09T02:54:31.142Z,10.70
2023-04-09T02:57:00.159Z,10.57
2023-04-09T02:59:28.813Z,9.53
2023-04-09T03:01:57.408Z,10.57
2023-04-09T03:04:26.061Z,10.30
2023-04-09T03:06:54.977Z,9.73
2023-04-09T03:09:25.029Z,10.40
2023-04-09T03:11:53.574Z,11.73
2023-04-09T03:14:22.205Z,11.07
2023-04-09T03:16:50.722Z,11.60
2023-04-09T03:19:19.581Z,12.17
2023-04-09T03:21:49.363Z,11.80
2023-04-09T03:24:17.790Z,11.10
2023-04-09T03:26:47.571Z,9.80
2023-04-09T03:29:16.359Z,10.00
2023-04-09T03:31:44.873Z,10.20
2023-04-09T03:34:13.227Z,10.70
2023-04-09T03:36:41.705Z,9.63
2023-04-09T03:39:10.170Z,10.40
2023-04-09T03:41:38.752Z,11.67
2023-04-09T03:44:08.679Z,10.77
2023-04-09T03:46:37.332Z,10.00
2023-04-09T03:49:05.755Z,10.50
2023-04-09T03:51:34.190Z,10.10
2023-04-09T03:54:02.618Z,11.13
2023-04-09T03:56:31.098Z,11.50
2023-04-09T03:58:59.841Z,10.00
2023-04-09T04:01:29.924Z,11.60
2023-04-09T04:03:58.502Z,10.47
2023-04-09T04:06:27.335Z,10.03
2023-04-09T04:08:56.114Z,9.33
2023-04-09T04:11:28.868Z,8.50
2023-04-09T04:13:57.409Z,8.73
2023-04-09T04:16:26.247Z,9.20
2023-04-09T04:18:56.217Z,8.03
2023-04-09T04:21:24.576Z,7.57
2023-04-09T04:23:54.812Z,6.77
2023-04-09T04:26:23.159Z,6.60
2023-04-09T04:28:51.933Z,7.73
2023-04-09T04:31:20.720Z,7.13
2023-04-09T04:33:49.459Z,7.27
2023-04-09T04:36:19.214Z,8.60
2023-04-09T04:38:47.641Z,6.73
2023-04-09T04:41:16.408Z,6.40
2023-04-09T04:43:45.307Z,7.47
2023-04-09T04:46:13.702Z,8.67
2023-04-09T04:48:42.373Z,10.37
2023-04-09T04:51:10.900Z,8.43
2023-04-09T04:53:40.782Z,7.50
2023-04-09T04:56:09.620Z,10.30
2023-04-09T04:58:37.991Z,7.73
2023-04-09T05:01:06.665Z,7.03
2023-04-09T05:03:38.147Z,8.00
2023-04-09T05:06:07.501Z,7.47
2023-04-09T05:08:36.235Z,8.40
2023-04-09T05:11:05.865Z,8.10
2023-04-09T05:13:34.663Z,9.60
2023-04-09T05:16:03.956Z,8.40
2023-04-09T05:18:32.542Z,10.10
2023-04-09T05:21:00.912Z,7.93
2023-04-09T05:23:29.480Z,8.17
2023-04-09T05:25:58.038Z,7.63
2023-04-09T05:28:28.134Z,8.33
2023-04-09T05:30:56.765Z,7.83
2023-04-09T05:33:25.332Z,8.23
2023-04-09T05:35:53.882Z,7.93
2023-04-09T05:38:22.501Z,8.67
2023-04-09T05:40:50.904Z,8.93
2023-04-09T05:43:19.416Z,8.67
2023-04-09T05:45:49.433Z,8.53
2023-04-09T05:48:18.531Z,9.17
2023-04-09T05:50:54.996Z,9.73
2023-04-09T05:53:25.088Z,10.97
2023-04-09T05:55:53.315Z,10.20
2023-04-09T05:58:21.843Z,10.70
2023-04-09T06:00:52.776Z,9.30
2023-04-09T06:03:21.650Z,9.97
2023-04-09T06:05:50.289Z,10.63
2023-04-09T06:08:18.983Z,11.97
2023-04-09T06:10:47.279Z,13.60
2023-04-09T06:13:15.955Z,13.77
2023-04-09T06:15:44.491Z,13.10
2023-04-09T06:18:17.405Z,15.17
2023-04-09T06:20:45.809Z,14.70
2023-04-09T06:23:14.708Z,16.47
2023-04-09T06:25:43.390Z,15.73
2023-04-09T06:28:16.157Z,15.83
2023-04-09T06:30:44.615Z,16.47
2023-04-09T06:33:13.210Z,15.10
2023-04-09T06:35:43.076Z,13.07
2023-04-09T06:38:11.701Z,15.97
2023-04-09T06:40:40.763Z,15.40
2023-04-09T06:43:09.661Z,15.60
2023-04-09T06:45:40.980Z,14.97
2023-04-09T06:48:10.188Z,14.27
2023-04-09T06:50:38.604Z,14.23
2023-04-09T06:53:09.344Z,16.33
2023-04-09T06:55:37.795Z,17.03
2023-04-09T06:58:06.516Z,16.63
2023-04-09T07:00:34.919Z,15.80
2023-04-09T07:03:03.722Z,16.07
2023-04-09T07:05:33.292Z,16.97
2023-04-09T07:08:01.949Z,15.80
2023-04-09T07:10:31.730Z,17.57
2023-04-09T07:12:59.942Z,16.67
2023-04-09T07:15:28.419Z,17.90
2023-04-09T07:17:57.703Z,18.07
2023-04-09T07:20:26.291Z,18.13
2023-04-09T07:22:54.783Z,18.67
2023-04-09T07:25:23.192Z,19.70
2023-04-09T07:27:53.252Z,17.97
2023-04-09T07:30:21.868Z,18.73
2023-04-09T07:32:50.701Z,18.57
2023-04-09T07:35:19.638Z,17.73
2023-04-09T07:37:48.158Z,18.30
2023-04-09T07:40:16.805Z,17.77
2023-04-09T07:42:45.285Z,15.80
2023-04-09T07:45:14.903Z,16.80
2023-04-09T07:47:43.289Z,14.93
2023-04-09T07:50:12.372Z,16.07
2023-04-09T07:52:40.896Z,16.17
2023-04-09T07:55:09.777Z,16.13
2023-04-09T07:57:38.472Z,17.07
2023-04-09T08:00:08.377Z,16.00
2023-04-09T08:02:38.189Z,14.77
2023-04-09T08:05:07.963Z,16.57
2023-04-09T08:07:36.838Z,15.33
2023-04-09T08:10:05.376Z,14.73
2023-04-09T08:12:33.758Z,16.03
2023-04-09T08:15:03.756Z,13.70
2023-04-09T08:17:32.958Z,12.97
2023-04-09T08:20:02.969Z,14.83
2023-04-09T08:22:31.651Z,13.60
2023-04-09T08:25:02.226Z,14.40
2023-04-09T08:27:31.448Z,13.80
2023-04-09T08:29:59.824Z,13.47
2023-04-09T08:32:28.220Z,12.57
2023-04-09T08:34:56.747Z,14.37
2023-04-09T08:37:26.826Z,14.43
2023-04-09T08:39:55.375Z,15.50
2023-04-09T08:42:25.031Z,17.40
2023-04-09T08:44:53.102Z,20.70
2023-04-09T08:47:22.205Z,22.30
2023-04-09T08:49:50.372Z,24.25
2023-04-09T08:52:21.955Z,27.17
2023-04-09T08:54:52.663Z,27.38
2023-04-09T08:57:21.221Z,28.08
2023-04-09T08:59:49.545Z,30.75
2023-04-09T09:02:17.984Z,29.65
2023-04-09T09:04:47.539Z,29.65
2023-04-09T09:07:16.034Z,32.33
2023-04-09T09:09:56.293Z,35.60
2023-04-09T09:12:35.539Z,31.48
2023-04-09T09:15:04.135Z,31.70
2023-04-09T09:17:32.585Z,31.90
2023-04-09T09:20:01.246Z,29.67
2023-04-09T09:22:29.573Z,29.67
2023-04-09T09:24:59.043Z,30.58
2023-04-09T09:27:34.663Z,28.75
2023-04-09T09:30:03.594Z,27.17
2023-04-09T09:32:32.136Z,29.73
2023-04-09T09:35:04.954Z,27.60
2023-04-09T09:37:33.890Z,25.10
2023-04-09T09:40:04.077Z,23.40
2023-04-09T09:42:33.091Z,20.05
2023-04-09T09:45:02.181Z,18.95
2023-04-09T09:47:32.197Z,17.10
2023-04-09T09:50:00.384Z,16.30
2023-04-09T09:52:28.852Z,14.35
2023-04-09T09:54:59.568Z,14.15
2023-04-09T09:57:30.637Z,13.25
2023-04-09T10:00:03.097Z,12.90
2023-04-09T10:02:42.168Z,13.52
2023-04-09T10:05:11.037Z,13.93
2023-04-09T10:10:16.529Z,16.13
2023-04-09T10:12:47.202Z,15.88
2023-04-09T10:15:15.939Z,16.08
2023-04-09T10:17:44.406Z,14.77
2023-04-09T10:20:17.114Z,13.25
2023-04-09T10:22:49.286Z,13.65
2023-04-09T10:25:17.940Z,14.20
2023-04-09T10:27:49.246Z,13.32
2023-04-09T10:30:32.490Z,11.52
2023-04-09T10:33:10.733Z,12.27
2023-04-09T10:35:39.341Z,11.90
2023-04-09T10:38:09.746Z,11.80
2023-04-09T10:40:42.893Z,12.45
2023-04-09T10:43:12.851Z,12.23
2023-04-09T10:45:42.650Z,12.65
2023-04-09T10:48:14.964Z,10.70
2023-04-09T10:50:46.398Z,10.77
2023-04-09T10:53:24.948Z,11.20
2023-04-09T10:55:54.508Z,11.18
2023-04-09T10:58:24.063Z,11.80
2023-04-09T11:00:53.334Z,10.43
2023-04-09T11:03:27.408Z,9.65
2023-04-09T11:06:01.062Z,8.82
2023-04-09T11:08:33.453Z,8.75
2023-04-09T11:11:02.379Z,9.65
2023-04-09T11:13:34.257Z,8.70
2023-04-09T11:16:06.782Z,8.27
2023-04-09T11:18:37.128Z,7.75
2023-04-09T11:21:05.940Z,8.30
2023-04-09T11:23:34.555Z,7.93
2023-04-09T11:26:03.013Z,9.00
2023-04-09T11:28:32.720Z,10.20
2023-04-09T11:31:01.952Z,9.55
2023-04-09T11:33:34.344Z,10.75
2023-04-09T11:36:02.867Z,9.52
2023-04-09T11:38:32.846Z,10.45
2023-04-09T11:41:01.522Z,10.93
2023-04-09T11:43:29.890Z,11.20
2023-04-09T11:46:00.044Z,9.93
2023-04-09T11:48:28.417Z,10.15
2023-04-09T11:50:56.826Z,9.63
2023-04-09T11:53:25.364Z,9.50
2023-04-09T11:55:54.574Z,9.48
2023-04-09T11:58:24.053Z,9.02
2023-04-09T12:00:55.015Z,9.75
2023-04-09T12:03:30.896Z,9.25
2023-04-09T12:06:02.600Z,9.73
2023-04-09T12:08:31.336Z,10.27
2023-04-09T12:11:10.165Z,9.20
2023-04-09T12:13:42.863Z,9.27
2023-04-09T12:16:11.146Z,10.23
2023-04-09T12:18:41.263Z,9.30
2023-04-09T12:21:09.898Z,9.07
2023-04-09T12:23:38.374Z,8.85
2023-04-09T12:26:06.895Z,8.18
2023-04-09T12:28:35.079Z,10.05
2023-04-09T12:31:03.604Z,9.65
2023-04-09T12:33:32.302Z,9.38
2023-04-09T12:36:01.961Z,9.57
2023-04-09T12:38:30.420Z,9.43
2023-04-09T12:40:58.793Z,9.23
2023-04-09T12:43:27.203Z,9.40
2023-04-09T12:45:56.018Z,8.75
2023-04-09T12:48:24.434Z,9.90
2023-04-09T12:50:52.584Z,8.93
2023-04-09T12:53:22.134Z,9.25
2023-04-09T12:55:50.962Z,8.93
2023-04-09T12:58:19.486Z,9.40
2023-04-09T13:00:47.757Z,9.15
2023-04-09T13:03:17.278Z,8.68
2023-04-09T13:05:45.881Z,8.65
2023-04-09T13:08:14.232Z,8.75
2023-04-09T13:10:43.840Z,8.45
2023-04-09T13:13:13.016Z,9.30
2023-04-09T13:15:43.597Z,8.48
2023-04-09T13:18:12.428Z,9.27
2023-04-09T13:20:41.111Z,8.82
2023-04-09T13:23:09.523Z,9.57
2023-04-09T13:25:37.914Z,8.32
2023-04-09T13:28:08.568Z,8.52
2023-04-09T13:30:37.057Z,8.52
2023-04-09T13:33:05.636Z,8.75
2023-04-09T13:35:34.231Z,8.50
2023-04-09T13:38:02.539Z,8.20
2023-04-09T13:40:30.701Z,8.07
2023-04-09T13:42:59.070Z,8.38
2023-04-09T13:45:28.521Z,8.32
2023-04-09T13:47:56.947Z,9.13
2023-04-09T13:50:25.452Z,8.63
2023-04-09T13:52:53.561Z,9.35
2023-04-09T13:55:21.981Z,8.82
2023-04-09T13:57:50.332Z,8.85
2023-04-09T14:00:19.898Z,8.85
2023-04-09T14:02:49.596Z,8.73
2023-04-09T14:05:18.092Z,8.30
2023-04-09T14:07:46.533Z,9.00
2023-04-09T14:10:14.965Z,8.88
2023-04-09T14:12:43.321Z,8.82
2023-04-09T14:15:11.996Z,8.98
2023-04-09T14:17:41.562Z,8.05
2023-04-09T14:20:11.735Z,8.93
2023-04-09T14:22:41.416Z,8.50
2023-04-09T14:25:10.369Z,7.93
2023-04-09T14:27:39.094Z,9.38
2023-04-09T14:30:08.660Z,7.88
2023-04-09T14:32:37.118Z,8.38
2023-04-09T14:35:06.041Z,8.50
2023-04-09T14:37:35.583Z,8.05
2023-04-09T14:40:03.978Z,8.30
2023-04-09T14:42:32.398Z,8.68
2023-04-09T14:45:01.016Z,8.05
2023-04-09T14:47:29.166Z,9.02
2023-04-09T14:49:57.603Z,9.20
2023-04-09T14:52:25.815Z,7.95
2023-04-09T14:54:55.390Z,10.00
2023-04-09T14:57:23.530Z,8.57
2023-04-09T14:59:51.902Z,7.88
2023-04-09T15:02:20.565Z,9.20
2023-04-09T15:04:49.236Z,8.40
2023-04-09T15:07:17.377Z,8.32
2023-04-09T15:09:45.682Z,7.68
2023-04-09T15:12:15.208Z,7.65
2023-04-09T15:14:43.549Z,7.68
2023-04-09T15:17:11.928Z,6.55
2023-04-09T15:19:40.351Z,7.47
2023-04-09T15:22:08.803Z,7.65
2023-04-09T15:24:37.108Z,6.47
2023-04-09T15:27:05.660Z,6.97
2023-04-09T15:29:35.426Z,7.20
2023-04-09T15:32:04.287Z,7.15
2023-04-09T15:34:32.499Z,6.78
2023-04-09T15:37:00.616Z,7.07
2023-04-09T15:39:29.741Z,7.57
2023-04-09T15:41:59.070Z,7.28
2023-04-09T15:44:27.414Z,6.80
2023-04-09T15:46:57.054Z,7.00
2023-04-09T15:49:25.206Z,6.75
2023-04-09T15:51:53.306Z,7.88
2023-04-09T15:54:21.657Z,7.07
2023-04-09T15:56:49.887Z,8.05
2023-04-09T15:59:18.980Z,10.07
2023-04-09T16:01:47.264Z,9.27
2023-04-09T16:04:16.842Z,11.30
2023-04-09T16:06:45.347Z,9.95
2023-04-09T16:09:13.756Z,10.27
2023-04-09T16:11:42.172Z,10.45
2023-04-09T16:14:10.581Z,9.38
2023-04-09T16:16:39.098Z,8.52
2023-04-09T16:19:07.471Z,10.15
2023-04-09T16:21:36.884Z,9.20
2023-04-09T16:24:05.346Z,8.30
2023-04-09T16:26:33.423Z,8.15
2023-04-09T16:29:04.101Z,7.88
2023-04-09T16:31:32.289Z,8.18
2023-04-09T16:34:00.717Z,7.90
2023-04-09T16:36:29.192Z,7.25
2023-04-09T16:38:58.964Z,7.60
2023-04-09T16:41:27.428Z,7.43
2023-04-09T16:43:55.962Z,7.50
2023-04-09T16:46:24.404Z,8.43
2023-04-09T16:48:52.766Z,7.05
2023-04-09T16:51:21.405Z,6.88
2023-04-09T16:53:50.347Z,7.60
2023-04-09T16:56:19.920Z,7.47
2023-04-09T16:58:48.509Z,7.00
2023-04-09T17:01:17.065Z,6.68
2023-04-09T17:03:45.603Z,6.40
2023-04-09T17:06:13.744Z,6.40
2023-04-09T17:08:42.237Z,6.88
2023-04-09T17:11:10.626Z,6.88
2023-04-09T17:13:40.084Z,6.53
2023-04-09T17:16:09.391Z,6.80
2023-04-09T17:18:38.023Z,6.45
2023-04-09T17:21:06.803Z,6.75
2023-04-09T17:23:35.188Z,7.43
2023-04-09T17:26:03.590Z,6.75
2023-04-09T17:28:31.825Z,6.90
2023-04-09T17:31:01.584Z,7.18
2023-04-09T17:33:30.023Z,7.07
2023-04-09T17:35:58.591Z,6.80
2023-04-09T17:38:27.152Z,7.38
2023-04-09T17:40:55.441Z,6.80
2023-04-09T17:43:23.877Z,6.28
2023-04-09T17:45:52.341Z,6.30
2023-04-09T17:48:22.190Z,6.33
2023-04-09T17:50:51.305Z,7.67
2023-04-09T17:53:19.672Z,7.03
2023-04-09T17:55:48.893Z,8.40
2023-04-09T17:58:17.726Z,9.43
2023-04-09T18:00:45.950Z,9.43
2023-04-09T18:03:14.751Z,10.27
2023-04-09T18:05:44.837Z,10.00
2023-04-09T18:08:13.490Z,10.50
2023-04-09T18:10:42.206Z,10.77
2023-04-09T18:13:10.767Z,11.30
2023-04-09T18:15:39.429Z,10.40
2023-04-09T18:18:08.961Z,10.33
2023-04-09T18:20:37.320Z,10.57
2023-04-09T18:23:08.144Z,10.43
2023-04-09T18:25:37.618Z,12.10
2023-04-09T18:28:06.194Z,12.97
2023-04-09T18:30:36.186Z,14.57
2023-04-09T18:33:04.703Z,15.90
2023-04-09T18:35:32.964Z,14.77
2023-04-09T18:38:01.146Z,14.07
2023-04-09T18:40:32.313Z,14.07
2023-04-09T18:43:00.773Z,13.10
2023-04-09T18:45:29.193Z,11.60
2023-04-09T18:47:57.970Z,11.57
2023-04-09T18:50:26.387Z,12.40
2023-04-09T18:52:54.911Z,13.07
2023-04-09T18:55:23.617Z,13.00
2023-04-09T18:57:53.675Z,13.13
2023-04-09T19:00:22.147Z,12.03
2023-04-09T19:02:50.879Z,11.63
2023-04-09T19:05:20.904Z,11.00
2023-04-09T19:07:49.397Z,9.27
2023-04-09T19:10:17.530Z,10.07
2023-04-09T19:12:50.971Z,9.30
2023-04-09T19:15:21.026Z,11.13
2023-04-09T19:17:49.604Z,9.87
2023-04-09T19:20:18.554Z,10.40
2023-04-09T19:22:48.494Z,10.03
2023-04-09T19:25:17.272Z,10.80
2023-04-09T19:27:45.959Z,10.73
2023-04-09T19:30:15.751Z,10.07
2023-04-09T19:32:47.485Z,10.27
2023-04-09T19:35:16.883Z,10.40
2023-04-09T19:37:45.352Z,10.17
2023-04-09T19:40:15.540Z,9.93
2023-04-09T19:42:44.047Z,10.23
2023-04-09T19:45:13.264Z,9.97
2023-04-09T19:47:41.855Z,8.87
2023-04-09T19:50:12.214Z,9.40
2023-04-09T19:52:42.137Z,9.07
2023-04-09T19:55:11.335Z,9.00
2023-04-09T19:57:40.802Z,8.33
2023-04-09T20:00:10.042Z,9.10
2023-04-09T20:02:39.666Z,8.90
2023-04-09T20:05:08.436Z,7.87
2023-04-09T20:07:38.516Z,8.13
2023-04-09T20:10:07.562Z,9.07
2023-04-09T20:12:36.152Z,8.73
2023-04-09T20:15:07.985Z,9.33
2023-04-09T20:17:38.624Z,8.93
2023-04-09T20:20:07.992Z,9.93
2023-04-09T20:22:43.039Z,10.47
2023-04-09T20:25:12.420Z,10.80
2023-04-09T20:27:40.974Z,9.67
2023-04-09T20:30:10.094Z,11.10
2023-04-09T20:32:38.746Z,9.67
2023-04-09T20:35:08.420Z,9.57
2023-04-09T20:37:36.993Z,12.10
2023-04-09T20:40:07.970Z,10.80
2023-04-09T20:42:36.626Z,11.43
2023-04-09T20:45:05.605Z,13.20
2023-04-09T20:47:34.202Z,11.67
2023-04-09T20:50:03.315Z,11.83
2023-04-09T20:52:32.402Z,11.20
2023-04-09T20:55:00.913Z,12.03
2023-04-09T20:57:30.880Z,12.17
2023-04-09T20:59:59.728Z,13.63
2023-04-09T21:02:28.506Z,13.17
2023-04-09T21:05:05.511Z,13.77
2023-04-09T21:07:43.499Z,13.70
2023-04-09T21:10:12.163Z,13.57
2023-04-09T21:12:41.950Z,14.03
2023-04-09T21:15:12.181Z,15.27
2023-04-09T21:17:40.974Z,12.07
2023-04-09T21:20:10.000Z,13.37
2023-04-09T21:22:38.557Z,13.60
2023-04-09T21:25:07.923Z,13.40
2023-04-09T21:27:36.312Z,13.03
2023-04-09T21:30:06.727Z,12.40
2023-04-09T21:32:42.294Z,14.80
2023-04-09T21:35:11.000Z,14.30
2023-04-09T21:37:40.917Z,14.13
2023-04-09T21:40:09.919Z,12.53
2023-04-09T21:42:38.382Z,13.50
2023-04-09T21:45:08.741Z,13.90
2023-04-09T21:47:37.788Z,15.97
2023-04-09T21:50:06.502Z,17.83
2023-04-09T21:52:34.930Z,16.07
2023-04-09T21:55:03.573Z,16.07
2023-04-09T21:57:31.985Z,14.77
2023-04-09T22:00:00.475Z,14.07
2023-04-09T22:02:30.756Z,14.13
2023-04-09T22:05:01.160Z,14.20
2023-04-09T22:07:29.715Z,15.17
2023-04-09T22:09:58.560Z,14.77
2023-04-09T22:12:27.231Z,14.87
2023-04-09T22:14:56.249Z,16.93
2023-04-09T22:17:25.501Z,19.37
2023-04-09T22:19:55.326Z,18.60
2023-04-09T22:22:23.991Z,17.57
2023-04-09T22:24:52.281Z,19.03
2023-04-09T22:27:21.191Z,20.03
2023-04-09T22:29:49.591Z,22.33
2023-04-09T22:32:18.100Z,26.20
2023-04-09T22:34:46.575Z,24.40
2023-04-09T22:37:17.561Z,25.30
2023-04-09T22:39:46.250Z,21.87
2023-04-09T22:42:14.838Z,22.90
2023-04-09T22:44:43.234Z,20.53
2023-04-09T22:47:11.728Z,19.97
2023-04-09T22:49:40.440Z,21.47
2023-04-09T22:52:08.777Z,19.93
2023-04-09T22:54:39.004Z,21.13
2023-04-09T22:57:07.677Z,21.23
2023-04-09T22:59:40.360Z,19.47
2023-04-09T23:02:09.723Z,19.17
2023-04-09T23:04:38.362Z,16.70
2023-04-09T23:07:06.749Z,17.67
2023-04-09T23:09:35.438Z,16.33
2023-04-09T23:12:06.221Z,16.50
2023-04-09T23:14:34.914Z,16.73
2023-04-09T23:17:03.733Z,15.47
2023-04-09T23:19:32.667Z,16.57
2023-04-09T23:22:01.265Z,17.80
2023-04-09T23:24:29.719Z,18.83
2023-04-09T23:26:58.168Z,17.47
2023-04-09T23:29:27.675Z,16.70
2023-04-09T23:31:56.227Z,17.47
2023-04-09T23:34:24.895Z,17.50
2023-04-09T23:36:53.507Z,16.40
2023-04-09T23:39:22.262Z,17.90
2023-04-09T23:41:50.709Z,16.30
2023-04-09T23:44:19.181Z,16.43
2023-04-09T23:46:48.965Z,17.53
2023-04-09T23:49:17.631Z,17.37
2023-04-09T23:51:46.070Z,19.17
2023-04-09T23:54:14.479Z,17.83
2023-04-09T23:56:43.072Z,17.80
2023-04-09T23:59:11.838Z,19.30
